Hlavní strana
METAR-TAF:

METAR-TAF

Letiště :

Rarotonga, Cookovy ostrovy

zeměpisná šířka: 21-12S, zeměpisná délka: 159-49W, výška: 7 m

Aktuální stav počasí

Zpráva byla vytvořena před 40 minutami, v 14:00 UTC
Východní vítr 6 kt
Teplota 24°C
Vlhkost vzduchu 89%
Tlak 1015 hPa
Viditelnost 10 km a více
Polojasno ve výšce 1600 ft
Oblačno až skoro zataženo ve výšce 10000 ft

METAR: NCRG 241400Z 08006KT 9999 SCT016 BKN100 24/22 Q1015

Čas: 04:40 (14:40 UTC)

Předpověď počasí

Zpráva byla vytvořena před 3 hodinami a 33 minutami, v 11:07 UTC
Předpověď platná od 24 v 12 UTC do 25 v 12 UTC
Východojihovýchodní vítr 7 kt
Viditelnost 10 km a více
Polojasno ve výšce 1600 ft
Oblačno až skoro zataženo ve výšce 10000 ft
Pravděpodobnost 30% :
Dočasný
od 25 v 00 UTC do 25 v 08 UTC
Viditelnost: 5000 m
Oblačno až skoro zataženo ve výšce 1500 ft
dešťové přeháňky

TAF: NCRG 241107Z 2412/2512 11007KT 9999 SCT016 BKN100 PROB30 TEMPO 2500/2508 5000 SHRA BKN015

Stav a předpovědi počasí z více než 4 000 letišť (zprávy METAR a TAF).

Červené a žluté tečky na mapě představují dostupné meteorologické stanice.

Když kurzor umístíte na tečku, zobrazí se název stanice.

Pak kliknutím zobrazíte stav a předpověď počasí.

Chcete-li změnit mapu, kliknutím na zelené tlačítko se znaménkem +mapu přiblížíte, kliknutím na zelené tlačítko se znaménkem – mapu oddálíte a kliknutím na zelené šipky přejdete na sousední mapy.


METAR-TAF: